Time;durP1;ratioP1;P1;durP2;ratioP2;P2;SDS_P1;SDS_P2;PMS_P1;PMS_P2;Temp;Humidity;BMP_temperature;BMP_pressure;BME280_temperature;BME280_humidity;BME280_pressure;Samples;Min_cycle;Max_cycle;Signal;HPM_P1;HPM_P2
2022/03/08 00:01:32;;;;;;;;;;;;;;;12.12;40.47;100996.47;4407387;32;20327;-71
2022/03/08 00:03:58;;;;;;;;;;;;;;;11.92;40.74;100991.72;4409093;32;20345;-71
2022/03/08 00:06:24;;;;;;;;;;;;;;;11.83;41.09;100990.75;4407849;32;20007;-72
2022/03/08 00:08:49;;;;;;;;;;;;;;;11.88;41.09;100990.22;4405007;32;20303;-70
2022/03/08 00:11:16;;;;;;;;;;;;;;;11.77;40.95;100982.03;4405726;32;20422;-70
2022/03/08 00:13:42;;;;;;;;;;;;;;;11.65;41.69;100979.09;4405924;32;19985;-72
2022/03/08 00:16:07;;;;;;;;;;;;;;;11.56;41.80;100976.06;4407506;32;20052;-71
2022/03/08 00:18:33;;;;;;;;;;;;;;;11.59;41.77;100966.75;4405283;32;19989;-72
2022/03/08 00:20:59;;;;;;;;;;;;;;;11.57;41.72;100967.19;4407168;32;19997;-72
2022/03/08 00:23:25;;;;;;;;;;;;;;;11.51;41.94;100956.88;4407133;32;19961;-72
2022/03/08 00:25:51;;;;;;;;;;;;;;;11.57;41.93;100963.59;4405571;32;21040;-72
2022/03/08 00:28:16;;;;;;;;;;;;;;;11.52;42.10;100955.66;4405503;32;19989;-72
2022/03/08 00:30:42;;;;;;;;;;;;;;;11.37;42.43;100943.13;4406344;32;19979;-72
2022/03/08 00:33:08;;;;;;;;;;;;;;;11.23;42.57;100944.25;4406691;32;19973;-71
2022/03/08 00:35:33;;;;;;;;;;;;;;;11.32;42.57;100938.81;4407684;32;19949;-71
2022/03/08 00:37:59;;;;;;;;;;;;;;;11.37;42.49;100932.66;4404415;32;19961;-71
2022/03/08 00:40:25;;;;;;;;;;;;;;;11.28;42.65;100938.09;4406703;32;19983;-71
2022/03/08 00:42:51;;;;;;;;;;;;;;;11.33;42.34;100931.16;4408035;32;19982;-71
2022/03/08 00:45:17;;;;;;;;;;;;;;;11.30;42.31;100926.41;4405441;32;20416;-72
2022/03/08 00:47:42;;;;;;;;;;;;;;;11.31;42.33;100927.97;4406482;32;19950;-71
2022/03/08 00:50:10;;;;;;;;;;;;;;;11.22;42.50;100913.72;4405122;32;19980;-71
2022/03/08 00:52:35;;;;;;;;;;;;;;;11.15;42.78;100913.88;4407211;32;20037;-71
2022/03/08 00:55:01;;;;;;;;;;;;;;;10.91;43.21;100906.78;4407247;32;19953;-71
2022/03/08 00:57:27;;;;;;;;;;;;;;;10.71;43.89;100906.06;4406991;32;19995;-71
2022/03/08 00:59:53;;;;;;;;;;;;;;;10.84;43.38;100913.41;4407459;32;20017;-71
2022/03/08 01:02:19;;;;;;;;;;;;;;;10.83;43.47;100899.75;4406822;32;20119;-71
2022/03/08 01:04:46;;;;;;;;;;;;;;;10.76;43.64;100908.34;4405515;32;19965;-71
2022/03/08 01:07:14;;;;;;;;;;;;;;;11.00;43.19;100904.19;4406953;32;20295;-71
2022/03/08 01:09:43;;;;;;;;;;;;;;;11.00;43.02;100902.16;4404689;32;20066;-71
2022/03/08 01:12:10;;;;;;;;;;;;;;;11.10;42.93;100900.31;4407673;32;19994;-71
2022/03/08 01:14:37;;;;;;;;;;;;;;;10.83;43.70;100897.72;4406487;32;20332;-71
2022/03/08 01:17:04;;;;;;;;;;;;;;;10.82;43.51;100896.12;4400752;32;20001;-71
2022/03/08 01:19:30;;;;;;;;;;;;;;;10.81;43.74;100899.38;4406163;32;19973;-71
2022/03/08 01:21:55;;;;;;;;;;;;;;;10.88;43.33;100890.78;4407434;32;19949;-71
2022/03/08 01:24:21;;;;;;;;;;;;;;;10.77;43.69;100884.63;4404747;32;19957;-71
2022/03/08 01:26:48;;;;;;;;;;;;;;;10.60;43.91;100882.97;4405081;32;20312;-71
2022/03/08 01:29:13;;;;;;;;;;;;;;;10.59;43.79;100879.38;4406648;32;20658;-71
2022/03/08 01:31:39;;;;;;;;;;;;;;;10.68;43.78;100875.97;4405818;32;20350;-71
2022/03/08 01:34:04;;;;;;;;;;;;;;;10.65;43.85;100877.59;4405437;32;19970;-71
2022/03/08 01:36:30;;;;;;;;;;;;;;;10.75;43.60;100867.34;4405079;32;19972;-71
2022/03/08 01:38:55;;;;;;;;;;;;;;;10.63;43.50;100860.37;4407693;32;19965;-71
2022/03/08 01:41:21;;;;;;;;;;;;;;;10.80;43.25;100855.59;4405539;32;19957;-71
2022/03/08 01:43:47;;;;;;;;;;;;;;;10.40;44.09;100848.44;4406821;32;20024;-72
2022/03/08 01:46:13;;;;;;;;;;;;;;;10.52;43.87;100844.97;4406941;32;19990;-71
2022/03/08 01:48:39;;;;;;;;;;;;;;;10.65;43.64;100840.25;4406138;32;19950;-71
2022/03/08 01:51:04;;;;;;;;;;;;;;;10.61;43.53;100840.31;4405415;32;19950;-71
2022/03/08 01:53:31;;;;;;;;;;;;;;;10.53;43.50;100829.66;4408069;32;19998;-71
2022/03/08 01:55:57;;;;;;;;;;;;;;;10.69;43.43;100829.69;4405046;32;20004;-71
2022/03/08 01:58:22;;;;;;;;;;;;;;;10.78;43.19;100829.87;4405963;32;19973;-71
2022/03/08 02:00:48;;;;;;;;;;;;;;;10.75;43.36;100827.94;4406173;32;19954;-71
2022/03/08 02:03:14;;;;;;;;;;;;;;;10.53;43.79;100824.03;4406011;32;20049;-71
2022/03/08 02:05:39;;;;;;;;;;;;;;;10.63;43.66;100821.00;4406318;32;19972;-71
2022/03/08 02:08:05;;;;;;;;;;;;;;;10.81;43.11;100824.19;4405986;32;19989;-71
2022/03/08 02:10:30;;;;;;;;;;;;;;;10.84;43.22;100814.06;4405979;32;20380;-71
2022/03/08 02:12:57;;;;;;;;;;;;;;;10.83;43.32;100813.25;4406551;32;20381;-71
2022/03/08 02:15:26;;;;;;;;;;;;;;;10.80;43.25;100808.50;4405627;32;21380;-71
2022/03/08 02:17:51;;;;;;;;;;;;;;;10.69;43.49;100801.53;4405355;32;19972;-71
2022/03/08 02:20:18;;;;;;;;;;;;;;;10.76;43.31;100802.19;4405530;32;20655;-71
2022/03/08 02:22:44;;;;;;;;;;;;;;;10.79;43.17;100794.88;4408987;32;19987;-71
2022/03/08 02:25:10;;;;;;;;;;;;;;;10.68;43.33;100783.84;4404367;32;20419;-71
2022/03/08 02:27:40;;;;;;;;;;;;;;;10.79;43.14;100787.22;4405040;32;20001;-71
2022/03/08 02:30:05;;;;;;;;;;;;;;;10.82;43.11;100783.53;4405628;32;19953;-71
2022/03/08 02:32:31;;;;;;;;;;;;;;;10.51;43.61;100778.66;4404753;32;20034;-71
2022/03/08 02:35:03;;;;;;;;;;;;;;;10.61;43.41;100763.56;4405611;32;19970;-71
2022/03/08 02:37:36;;;;;;;;;;;;;;;10.61;43.15;100761.53;4404034;32;19993;-71
2022/03/08 02:40:03;;;;;;;;;;;;;;;10.49;43.50;100767.06;4406011;32;19949;-71
2022/03/08 02:42:28;;;;;;;;;;;;;;;10.46;43.51;100751.06;4405872;32;19954;-71
2022/03/08 02:44:54;;;;;;;;;;;;;;;10.50;43.55;100748.94;4406182;32;20009;-71
2022/03/08 02:47:21;;;;;;;;;;;;;;;10.48;43.67;100745.75;4406577;32;19969;-71
2022/03/08 02:49:46;;;;;;;;;;;;;;;10.53;43.40;100742.44;4405324;32;20032;-71
2022/03/08 02:52:12;;;;;;;;;;;;;;;10.17;43.72;100736.84;4411026;32;19954;-71
2022/03/08 02:54:38;;;;;;;;;;;;;;;10.31;43.63;100724.47;4408460;32;19980;-71
2022/03/08 02:57:04;;;;;;;;;;;;;;;10.44;43.52;100728.19;4409484;32;20426;-71
2022/03/08 02:59:29;;;;;;;;;;;;;;;10.58;43.12;100723.00;4408156;32;19968;-71
2022/03/08 03:01:55;;;;;;;;;;;;;;;10.54;43.18;100715.88;4409410;32;19954;-69
2022/03/08 03:04:21;;;;;;;;;;;;;;;10.42;43.53;100714.56;4406965;32;20020;-69
2022/03/08 03:06:46;;;;;;;;;;;;;;;10.44;43.28;100709.28;4405442;32;19993;-69
2022/03/08 03:09:12;;;;;;;;;;;;;;;10.31;43.59;100702.75;4406783;32;20003;-69
2022/03/08 03:11:37;;;;;;;;;;;;;;;10.38;43.44;100704.63;4406912;32;20003;-69
2022/03/08 03:14:03;;;;;;;;;;;;;;;10.42;43.05;100697.69;4408143;32;20008;-69
2022/03/08 03:16:29;;;;;;;;;;;;;;;10.28;43.55;100692.38;4405467;32;19973;-69
2022/03/08 03:18:55;;;;;;;;;;;;;;;10.31;43.28;100679.47;4406673;32;19958;-69
2022/03/08 03:21:20;;;;;;;;;;;;;;;10.25;43.36;100684.84;4407446;32;19953;-69
2022/03/08 03:23:46;;;;;;;;;;;;;;;10.19;43.63;100674.53;4407159;32;19989;-69
2022/03/08 03:26:11;;;;;;;;;;;;;;;10.19;43.85;100669.72;4403890;32;20336;-69
2022/03/08 03:28:37;;;;;;;;;;;;;;;9.89;43.56;100672.78;4408995;32;20672;-69
2022/03/08 03:31:02;;;;;;;;;;;;;;;10.19;43.42;100663.28;4406768;32;20459;-69
2022/03/08 03:33:28;;;;;;;;;;;;;;;10.27;43.43;100665.50;4406819;32;20408;-69
2022/03/08 03:35:54;;;;;;;;;;;;;;;10.18;43.38;100656.88;4408331;32;19993;-69
2022/03/08 03:38:19;;;;;;;;;;;;;;;10.24;43.39;100665.59;4407278;32;19949;-69
2022/03/08 03:40:45;;;;;;;;;;;;;;;10.19;43.66;100660.47;4391883;32;20011;-69
2022/03/08 03:43:11;;;;;;;;;;;;;;;10.25;43.35;100653.09;4406432;32;20452;-69
2022/03/08 03:45:37;;;;;;;;;;;;;;;10.16;43.68;100650.91;4408371;32;20661;-69
2022/03/08 03:48:02;;;;;;;;;;;;;;;10.03;43.77;100641.53;4407925;32;20001;-69
2022/03/08 03:50:28;;;;;;;;;;;;;;;10.14;43.57;100647.72;4405705;32;19999;-69
2022/03/08 03:52:54;;;;;;;;;;;;;;;10.13;43.53;100642.53;4407803;32;20324;-69
2022/03/08 03:55:19;;;;;;;;;;;;;;;9.95;43.89;100638.09;4407536;32;19969;-69
2022/03/08 03:57:45;;;;;;;;;;;;;;;10.03;43.81;100635.91;4406003;32;20005;-69
2022/03/08 04:00:11;;;;;;;;;;;;;;;10.00;43.87;100631.16;4405861;32;19966;-69
2022/03/08 04:02:37;;;;;;;;;;;;;;;9.92;43.93;100618.50;4405802;32;20005;-69
2022/03/08 04:05:03;;;;;;;;;;;;;;;10.00;43.58;100615.09;4407358;32;19954;-69
2022/03/08 04:07:29;;;;;;;;;;;;;;;9.84;43.66;100620.69;4406647;32;19992;-69
2022/03/08 04:09:55;;;;;;;;;;;;;;;10.06;43.40;100613.37;4406197;32;20410;-69
2022/03/08 04:12:20;;;;;;;;;;;;;;;9.95;43.46;100609.97;4405693;32;20500;-69
2022/03/08 04:14:46;;;;;;;;;;;;;;;9.97;43.38;100609.53;4394200;32;20298;-69
2022/03/08 04:17:12;;;;;;;;;;;;;;;9.89;43.64;100596.91;4405792;32;20350;-69
2022/03/08 04:19:37;;;;;;;;;;;;;;;9.76;43.96;100605.22;4405737;32;20005;-69
2022/03/08 04:22:03;;;;;;;;;;;;;;;9.69;44.08;100599.75;4406452;32;19991;-69
2022/03/08 04:24:29;;;;;;;;;;;;;;;9.80;43.77;100603.13;4406685;32;20014;-69
2022/03/08 04:26:54;;;;;;;;;;;;;;;9.86;43.66;100611.81;4405610;32;20016;-69
2022/03/08 04:29:20;;;;;;;;;;;;;;;9.81;43.88;100593.47;4405823;32;20050;-69
2022/03/08 04:31:45;;;;;;;;;;;;;;;9.31;43.59;100519.19;4405125;32;20099;-69
2022/03/08 04:34:10;;;;;;;;;;;;;;;9.43;44.50;100595.12;4406329;32;20089;-69
2022/03/08 04:36:37;;;;;;;;;;;;;;;9.75;43.63;100589.59;4405848;32;20046;-69
2022/03/08 04:39:02;;;;;;;;;;;;;;;9.74;43.47;100587.22;4407185;32;19957;-69
2022/03/08 04:41:28;;;;;;;;;;;;;;;9.63;43.86;100592.25;4406374;32;19964;-69
2022/03/08 04:43:54;;;;;;;;;;;;;;;9.61;43.80;100581.47;4405163;32;19964;-69
2022/03/08 04:46:19;;;;;;;;;;;;;;;9.72;43.53;100586.84;4404887;32;19996;-69
2022/03/08 04:48:45;;;;;;;;;;;;;;;9.73;43.46;100577.97;4404352;32;20039;-69
2022/03/08 04:51:10;;;;;;;;;;;;;;;9.51;43.97;100582.50;4405459;32;19969;-69
2022/03/08 04:53:38;;;;;;;;;;;;;;;9.63;43.46;100581.03;4406642;32;20352;-70
2022/03/08 04:56:03;;;;;;;;;;;;;;;9.58;43.79;100582.34;4390596;32;20410;-69
2022/03/08 04:58:29;;;;;;;;;;;;;;;9.67;43.56;100582.53;4407248;32;19989;-69
2022/03/08 05:00:54;;;;;;;;;;;;;;;9.44;44.14;100588.28;4402923;32;20354;-69
2022/03/08 05:03:20;;;;;;;;;;;;;;;9.36;44.00;100578.41;4407407;32;20008;-69
2022/03/08 05:05:45;;;;;;;;;;;;;;;9.33;44.11;100572.91;4406608;32;20444;-69
2022/03/08 05:08:11;;;;;;;;;;;;;;;9.11;44.36;100572.53;4405188;32;19946;-69
2022/03/08 05:10:37;;;;;;;;;;;;;;;9.44;43.79;100581.88;4402960;32;20409;-69
2022/03/08 05:13:03;;;;;;;;;;;;;;;9.51;43.49;100582.50;4405784;32;20009;-69
2022/03/08 05:15:30;;;;;;;;;;;;;;;9.59;43.35;100583.94;4405326;32;20434;-69
2022/03/08 05:17:56;;;;;;;;;;;;;;;9.53;43.40;100579.25;4407713;32;20231;-69
2022/03/08 05:20:21;;;;;;;;;;;;;;;9.51;43.43;100585.31;4404633;32;19983;-69
2022/03/08 05:22:47;;;;;;;;;;;;;;;9.35;43.59;100582.47;4405963;32;20822;-69
2022/03/08 05:25:13;;;;;;;;;;;;;;;9.53;43.24;100580.06;4407807;32;20377;-69
2022/03/08 05:27:38;;;;;;;;;;;;;;;9.63;42.98;100572.59;4405914;32;19965;-69
2022/03/08 05:30:05;;;;;;;;;;;;;;;9.55;42.92;100571.19;4405050;32;19958;-69
2022/03/08 05:32:30;;;;;;;;;;;;;;;9.59;42.84;100566.28;4404948;32;19958;-69
2022/03/08 05:34:56;;;;;;;;;;;;;;;9.37;43.30;100565.19;4405438;32;20015;-69
2022/03/08 05:37:21;;;;;;;;;;;;;;;9.45;43.05;100555.37;4405726;32;20013;-69
2022/03/08 05:39:47;;;;;;;;;;;;;;;9.28;43.31;100577.00;4405734;32;20022;-69
2022/03/08 05:42:13;;;;;;;;;;;;;;;9.39;43.18;100571.16;4404129;32;20913;-69
2022/03/08 05:44:39;;;;;;;;;;;;;;;9.10;43.38;100558.94;4404579;32;19965;-69
2022/03/08 05:47:05;;;;;;;;;;;;;;;9.31;43.08;100558.50;4404013;32;19994;-69
2022/03/08 05:49:31;;;;;;;;;;;;;;;9.49;42.38;100556.88;4406002;32;19997;-69
2022/03/08 05:51:56;;;;;;;;;;;;;;;9.63;42.41;100550.91;4404300;32;19992;-69
2022/03/08 05:54:22;;;;;;;;;;;;;;;9.59;42.25;100555.03;4405254;32;19957;-69
2022/03/08 05:56:48;;;;;;;;;;;;;;;9.58;42.40;100547.84;4405468;32;20182;-69
2022/03/08 05:59:13;;;;;;;;;;;;;;;9.53;42.40;100557.59;4406381;32;20334;-69
2022/03/08 06:01:39;;;;;;;;;;;;;;;9.45;42.49;100544.16;4404535;32;19966;-69
2022/03/08 06:04:05;;;;;;;;;;;;;;;9.48;42.44;100555.28;4404574;32;20350;-69
2022/03/08 06:06:31;;;;;;;;;;;;;;;9.43;42.39;100543.78;4405889;32;19961;-69
2022/03/08 06:08:57;;;;;;;;;;;;;;;9.25;42.61;100546.97;4403386;32;21136;-69
2022/03/08 06:11:22;;;;;;;;;;;;;;;9.38;42.45;100545.09;4405229;32;20437;-69
2022/03/08 06:13:48;;;;;;;;;;;;;;;9.27;42.64;100538.91;4405315;32;19973;-69
2022/03/08 06:16:14;;;;;;;;;;;;;;;9.37;42.36;100537.91;4404897;32;20233;-69
2022/03/08 06:18:40;;;;;;;;;;;;;;;9.40;42.17;100536.22;4403976;32;20425;-69
2022/03/08 06:21:06;;;;;;;;;;;;;;;9.33;42.36;100531.53;4406480;32;20000;-69
2022/03/08 06:23:31;;;;;;;;;;;;;;;9.29;42.64;100535.66;4406855;32;20012;-69
2022/03/08 06:25:56;;;;;;;;;;;;;;;9.24;42.62;100530.56;4390930;32;20009;-70
2022/03/08 06:28:22;;;;;;;;;;;;;;;9.16;42.91;100529.94;4409238;32;20049;-70
2022/03/08 06:30:47;;;;;;;;;;;;;;;9.07;42.79;100529.72;4405929;32;20324;-70
2022/03/08 06:33:13;;;;;;;;;;;;;;;9.25;42.11;100532.16;4407870;32;20035;-70
2022/03/08 06:35:39;;;;;;;;;;;;;;;9.04;42.49;100538.22;4407084;32;19976;-70
2022/03/08 06:38:05;;;;;;;;;;;;;;;9.14;42.42;100531.59;4406090;32;19992;-70
2022/03/08 06:40:32;;;;;;;;;;;;;;;9.03;42.24;100533.84;4407316;32;19957;-70
2022/03/08 06:42:57;;;;;;;;;;;;;;;9.08;42.46;100536.16;4393352;32;20017;-69
2022/03/08 06:45:23;;;;;;;;;;;;;;;9.25;41.75;100529.34;4406664;32;19972;-69
2022/03/08 06:47:49;;;;;;;;;;;;;;;9.28;41.84;100532.06;4408088;32;20331;-70
2022/03/08 06:50:14;;;;;;;;;;;;;;;9.22;42.15;100542.25;4406604;32;20001;-70
2022/03/08 06:52:40;;;;;;;;;;;;;;;9.16;42.41;100540.34;4407519;32;20418;-70
2022/03/08 06:55:06;;;;;;;;;;;;;;;9.18;42.05;100538.69;4408229;32;19957;-70
2022/03/08 06:57:31;;;;;;;;;;;;;;;9.23;42.13;100534.59;4406274;32;20024;-70
2022/03/08 06:59:57;;;;;;;;;;;;;;;9.29;42.26;100536.47;4407281;32;20004;-70
2022/03/08 07:02:23;;;;;;;;;;;;;;;9.24;42.24;100527.75;4408176;32;19993;-70
2022/03/08 07:04:48;;;;;;;;;;;;;;;9.42;41.67;100522.53;4406989;32;20046;-70
2022/03/08 07:07:14;;;;;;;;;;;;;;;9.47;41.63;100522.81;4408289;32;19998;-70
2022/03/08 07:09:39;;;;;;;;;;;;;;;9.32;41.19;100512.31;4404557;32;19954;-70
2022/03/08 07:12:05;;;;;;;;;;;;;;;9.56;40.91;100510.97;4406893;32;19958;-70
2022/03/08 07:14:30;;;;;;;;;;;;;;;9.46;40.89;100512.00;4406589;32;20384;-70
2022/03/08 07:16:56;;;;;;;;;;;;;;;9.67;40.38;100515.09;4407469;32;19953;-70
2022/03/08 07:19:22;;;;;;;;;;;;;;;9.57;40.23;100510.53;4406770;32;19966;-70
2022/03/08 07:21:47;;;;;;;;;;;;;;;9.74;39.82;100520.56;4393221;32;20369;-70
2022/03/08 07:24:14;;;;;;;;;;;;;;;10.10;39.06;100515.66;4408417;32;20408;-70
2022/03/08 07:26:39;;;;;;;;;;;;;;;10.04;38.86;100520.19;4407754;32;20375;-70
2022/03/08 07:29:05;;;;;;;;;;;;;;;10.15;38.56;100510.75;4407469;32;20008;-70
2022/03/08 07:31:30;;;;;;;;;;;;;;;10.13;38.56;100516.81;4405638;32;20962;-70
2022/03/08 07:33:56;;;;;;;;;;;;;;;10.10;38.75;100509.25;4404084;32;20855;-70
2022/03/08 07:36:22;;;;;;;;;;;;;;;10.28;38.37;100512.38;4406284;32;19972;-70
2022/03/08 07:38:47;;;;;;;;;;;;;;;10.26;37.87;100514.06;4403660;32;20015;-70
2022/03/08 07:41:14;;;;;;;;;;;;;;;10.42;37.86;100511.22;4406427;32;20073;-70
2022/03/08 07:43:40;;;;;;;;;;;;;;;10.22;37.80;100511.34;4404595;32;20017;-70
2022/03/08 07:46:07;;;;;;;;;;;;;;;10.28;37.94;100514.41;4395910;32;20260;-70
2022/03/08 07:48:33;;;;;;;;;;;;;;;10.44;37.86;100515.19;4403974;32;20377;-70
2022/03/08 07:50:59;;;;;;;;;;;;;;;10.64;37.59;100518.63;4393157;32;19997;-70
2022/03/08 07:53:24;;;;;;;;;;;;;;;10.67;37.37;100528.19;4389617;32;20743;-70
2022/03/08 07:55:50;;;;;;;;;;;;;;;10.57;37.54;100526.47;4403800;32;20012;-70
2022/03/08 07:58:15;;;;;;;;;;;;;;;10.37;37.71;100523.78;4403504;32;20002;-70
2022/03/08 08:00:41;;;;;;;;;;;;;;;10.62;37.37;100528.75;4399239;32;21048;-69
2022/03/08 08:03:07;;;;;;;;;;;;;;;10.15;37.99;100522.75;4400293;32;20005;-69
2022/03/08 08:05:34;;;;;;;;;;;;;;;10.15;38.35;100519.97;4401022;32;19954;-69
2022/03/08 08:08:00;;;;;;;;;;;;;;;10.55;37.55;100524.09;4398980;32;20437;-69
2022/03/08 08:10:25;;;;;;;;;;;;;;;10.52;37.63;100532.66;4402099;32;20009;-70
2022/03/08 08:12:51;;;;;;;;;;;;;;;10.74;37.73;100525.97;4402258;32;19997;-70
2022/03/08 08:15:16;;;;;;;;;;;;;;;10.35;37.92;100534.72;4400509;32;20070;-70
2022/03/08 08:17:42;;;;;;;;;;;;;;;10.73;37.84;100523.59;4403999;32;20404;-70
2022/03/08 08:20:08;;;;;;;;;;;;;;;11.18;37.55;100525.09;4405411;32;20016;-70
2022/03/08 08:22:33;;;;;;;;;;;;;;;11.46;36.55;100523.44;4404341;32;20076;-70
2022/03/08 08:24:59;;;;;;;;;;;;;;;11.42;36.51;100525.59;4404341;32;20009;-72
2022/03/08 08:27:25;;;;;;;;;;;;;;;11.53;36.25;100526.81;4404578;32;19962;-71
2022/03/08 08:29:51;;;;;;;;;;;;;;;11.98;36.00;100524.59;4404343;32;20026;-70
2022/03/08 08:32:17;;;;;;;;;;;;;;;12.27;35.30;100510.28;4401655;32;20026;-69
2022/03/08 08:34:42;;;;;;;;;;;;;;;12.08;35.55;100517.00;4401920;32;19997;-69
2022/03/08 08:37:09;;;;;;;;;;;;;;;12.25;35.21;100507.16;4392196;32;20182;-68
2022/03/08 08:39:35;;;;;;;;;;;;;;;12.22;35.43;100502.44;4407847;32;19957;-70
2022/03/08 08:42:00;;;;;;;;;;;;;;;12.20;35.10;100504.09;4410413;32;20544;-69
2022/03/08 08:44:26;;;;;;;;;;;;;;;12.48;35.07;100503.91;4408395;32;20398;-70
2022/03/08 08:46:52;;;;;;;;;;;;;;;12.71;34.46;100499.88;4409457;32;20474;-70
2022/03/08 08:49:18;;;;;;;;;;;;;;;12.78;34.27;100497.56;4394558;32;20353;-68
2022/03/08 08:51:43;;;;;;;;;;;;;;;12.73;34.54;100495.34;4406067;32;20040;-71
2022/03/08 08:54:09;;;;;;;;;;;;;;;12.67;34.61;100499.22;4410379;32;19984;-70
2022/03/08 08:56:35;;;;;;;;;;;;;;;12.85;34.57;100493.69;4408455;32;20029;-70
2022/03/08 08:59:02;;;;;;;;;;;;;;;13.27;33.86;100492.09;4408074;32;19953;-69
2022/03/08 09:01:28;;;;;;;;;;;;;;;13.41;33.70;100500.81;4405388;32;20128;-70
2022/03/08 09:03:53;;;;;;;;;;;;;;;13.28;33.64;100494.47;4408339;32;20017;-71
2022/03/08 09:06:19;;;;;;;;;;;;;;;12.99;34.01;100487.50;4408805;32;19968;-71
2022/03/08 09:08:45;;;;;;;;;;;;;;;13.32;33.59;100495.09;4408217;32;20033;-71
2022/03/08 09:11:11;;;;;;;;;;;;;;;12.91;34.31;100495.47;4404590;32;19961;-71
2022/03/08 09:13:37;;;;;;;;;;;;;;;13.21;34.02;100494.75;4403767;32;20461;-71
2022/03/08 09:16:03;;;;;;;;;;;;;;;13.18;33.95;100484.37;4409805;32;20057;-71
2022/03/08 09:18:28;;;;;;;;;;;;;;;13.38;33.67;100487.59;4404984;32;20381;-71
2022/03/08 09:20:54;;;;;;;;;;;;;;;13.99;32.90;100490.34;4391933;32;20011;-71
2022/03/08 09:23:20;;;;;;;;;;;;;;;13.77;33.25;100492.50;4406304;32;19969;-70
2022/03/08 09:25:46;;;;;;;;;;;;;;;14.12;32.53;100490.22;4410227;32;20004;-71
2022/03/08 09:28:12;;;;;;;;;;;;;;;14.21;32.36;100493.06;4406571;32;20009;-71
2022/03/08 09:30:37;;;;;;;;;;;;;;;14.49;31.94;100479.75;4406913;32;20009;-70
2022/03/08 09:33:03;;;;;;;;;;;;;;;14.62;31.98;100480.38;4407272;32;20373;-70
2022/03/08 09:35:29;;;;;;;;;;;;;;;14.83;31.59;100482.25;4406695;32;19977;-70
2022/03/08 09:37:55;;;;;;;;;;;;;;;15.16;31.33;100486.75;4407934;32;19981;-70
2022/03/08 09:40:21;;;;;;;;;;;;;;;15.74;30.75;100489.28;4408017;32;20287;-72
2022/03/08 09:42:48;;;;;;;;;;;;;;;15.59;30.61;100485.56;4404637;32;19985;-71
2022/03/08 09:45:14;;;;;;;;;;;;;;;16.06;30.16;100482.00;4407441;32;20320;-72
2022/03/08 09:47:40;;;;;;;;;;;;;;;15.48;30.65;100488.13;4410930;32;19971;-72
2022/03/08 09:50:06;;;;;;;;;;;;;;;15.80;30.53;100484.50;4405607;32;20040;-72
2022/03/08 09:52:34;;;;;;;;;;;;;;;16.21;30.08;100488.53;4409123;32;19968;-72
2022/03/08 09:55:00;;;;;;;;;;;;;;;16.68;29.41;100486.47;4415046;32;19960;-72
2022/03/08 09:57:25;;;;;;;;;;;;;;;16.76;29.19;100479.12;4398872;32;20611;-71
2022/03/08 09:59:52;;;;;;;;;;;;;;;17.17;28.53;100478.09;4407153;32;20202;-70
2022/03/08 10:02:17;;;;;;;;;;;;;;;17.02;28.50;100480.13;4409422;32;20051;-70
2022/03/08 10:04:43;;;;;;;;;;;;;;;17.48;28.10;100480.44;4404984;32;20055;-70
2022/03/08 10:07:11;;;;;;;;;;;;;;;17.64;27.75;100482.78;4407827;32;19981;-71
2022/03/08 10:09:36;;;;;;;;;;;;;;;17.69;27.76;100482.09;4399084;32;20394;-69
2022/03/08 10:12:12;;;;;;;;;;;;;;;18.28;26.99;100477.78;4402371;32;20000;-70
2022/03/08 10:14:39;;;;;;;;;;;;;;;18.51;26.52;100482.50;4406148;32;19993;-70
2022/03/08 10:17:05;;;;;;;;;;;;;;;17.95;26.88;100479.38;4408927;32;20265;-70
2022/03/08 10:19:49;;;;;;;;;;;;;;;17.76;26.88;100473.94;4408071;32;20347;-70
2022/03/08 10:22:33;;;;;;;;;;;;;;;17.53;27.38;100469.19;4412197;32;19988;-69
2022/03/08 10:25:19;;;;;;;;;;;;;;;17.57;27.47;100466.91;4410748;32;19981;-70
2022/03/08 10:27:57;;;;;;;;;;;;;;;17.32;27.78;100458.16;4411533;32;20329;-69
2022/03/08 10:30:24;;;;;;;;;;;;;;;17.76;27.42;100453.22;4412112;32;19992;-69
2022/03/08 10:32:52;;;;;;;;;;;;;;;17.59;27.73;100455.81;4406397;32;20523;-71
2022/03/08 10:35:26;;;;;;;;;;;;;;;17.63;27.58;100447.06;4410783;32;19992;-69
2022/03/08 10:37:52;;;;;;;;;;;;;;;17.68;27.54;100447.13;4406164;32;20493;-70
2022/03/08 10:40:33;;;;;;;;;;;;;;;17.98;27.12;100444.22;4409643;32;19984;-70
2022/03/08 10:43:04;;;;;;;;;;;;;;;18.34;26.69;100441.59;4409493;32;20717;-70
2022/03/08 10:45:31;;;;;;;;;;;;;;;19.24;25.67;100439.22;4410730;32;20629;-71
2022/03/08 10:47:57;;;;;;;;;;;;;;;19.27;25.55;100443.94;4408967;32;20355;-71
2022/03/08 10:50:25;;;;;;;;;;;;;;;19.62;25.23;100442.41;4406248;32;19985;-71
2022/03/08 10:52:52;;;;;;;;;;;;;;;19.79;25.05;100443.31;4412627;32;20262;-70
2022/03/08 10:57:57;;;;;;;;;;;;;;;19.48;25.52;100433.97;3953613;31;15852915;-69
2022/03/08 11:00:25;;;;;;;;;;;;;;;19.94;25.00;100425.22;4437809;32;20339;-69
2022/03/08 11:02:53;;;;;;;;;;;;;;;20.17;24.74;100421.22;4440982;32;20009;-69
2022/03/08 11:05:19;;;;;;;;;;;;;;;19.93;24.95;100418.72;4444146;32;20009;-69
2022/03/08 11:07:45;;;;;;;;;;;;;;;19.93;24.61;100415.88;4442792;32;19992;-69
2022/03/08 11:10:11;;;;;;;;;;;;;;;19.37;25.47;100420.44;4439748;32;20399;-69
2022/03/08 11:12:38;;;;;;;;;;;;;;;18.97;26.05;100403.47;4443545;32;20031;-70
2022/03/08 11:15:05;;;;;;;;;;;;;;;19.19;25.74;100412.22;4442692;32;19970;-70
2022/03/08 11:17:33;;;;;;;;;;;;;;;19.36;25.74;100407.44;4441977;32;20554;-70
2022/03/08 11:19:58;;;;;;;;;;;;;;;19.51;25.43;100395.88;4437359;32;20448;-72
2022/03/08 11:22:24;;;;;;;;;;;;;;;19.23;25.69;100394.84;4442564;32;20103;-70
2022/03/08 11:24:52;;;;;;;;;;;;;;;19.78;25.26;100398.12;4442252;32;20092;-70
2022/03/08 11:27:18;;;;;;;;;;;;;;;20.05;25.02;100399.56;4443662;32;20005;-70
2022/03/08 11:29:43;;;;;;;;;;;;;;;19.71;25.16;100387.97;4440742;32;20025;-72
2022/03/08 11:32:13;;;;;;;;;;;;;;;20.77;24.04;100383.47;4442645;32;19973;-73
2022/03/08 11:34:44;;;;;;;;;;;;;;;20.68;24.19;100383.72;4442156;32;20067;-71
2022/03/08 11:37:17;;;;;;;;;;;;;;;20.88;23.67;100378.53;4440878;32;20008;-72
2022/03/08 11:39:43;;;;;;;;;;;;;;;20.21;24.42;100371.09;4439827;32;20250;-71
2022/03/08 11:44:54;;;;;;;;;;;;;;;21.78;23.11;100382.97;3945635;32;15728946;-72
2022/03/08 11:47:20;;;;;;;;;;;;;;;21.78;23.11;100382.97;4421399;32;20000;-71
2022/03/08 11:49:50;;;;;;;;;;;;;;;21.52;22.69;100378.31;4406270;32;20028;-72
2022/03/08 11:52:19;;;;;;;;;;;;;;;21.65;22.61;100366.28;4421342;32;20508;-71
2022/03/08 11:54:53;;;;;;;;;;;;;;;21.86;22.20;100372.53;4421241;32;19965;-71
2022/03/08 11:57:38;;;;;;;;;;;;;;;21.91;22.10;100363.94;4422671;32;20347;-71
2022/03/08 12:00:24;;;;;;;;;;;;;;;22.31;21.76;100368.19;4420364;32;19977;-71
2022/03/08 12:02:51;;;;;;;;;;;;;;;21.82;22.18;100352.75;4420682;32;19993;-72
2022/03/08 12:05:36;;;;;;;;;;;;;;;22.25;21.75;100353.09;4415650;32;20440;-71
2022/03/08 12:08:22;;;;;;;;;;;;;;;21.63;22.27;100346.78;4410224;32;20001;-71
2022/03/08 12:10:49;;;;;;;;;;;;;;;21.38;22.37;100347.88;4414410;32;21018;-71
2022/03/08 12:13:15;;;;;;;;;;;;;;;21.37;22.34;100352.03;4416548;32;20019;-70
2022/03/08 12:16:01;;;;;;;;;;;;;;;20.85;22.87;100348.13;4418469;32;20369;-70
2022/03/08 12:18:34;;;;;;;;;;;;;;;20.99;22.83;100340.62;4417555;32;19957;-71
2022/03/08 12:23:53;;;;;;;;;;;;;;;22.37;22.08;100329.56;3952086;31;15720781;-70
2022/03/08 12:37:16;;;;;;;;;;;;;;;23.22;21.19;100311.97;3938979;32;15723281;-70
2022/03/08 12:47:37;;;;;;;;;;;;;;;22.34;22.12;100296.25;3945012;32;15723577;-71
2022/03/08 12:50:05;;;;;;;;;;;;;;;22.34;22.12;100296.25;4419899;32;19968;-71
2022/03/08 12:52:34;;;;;;;;;;;;;;;21.00;23.19;100288.59;4418167;32;19999;-71
2022/03/08 12:55:01;;;;;;;;;;;;;;;21.36;23.07;100281.75;4421076;32;20084;-71
2022/03/08 12:57:27;;;;;;;;;;;;;;;21.97;22.49;100263.63;4422633;32;20016;-72
2022/03/08 12:59:53;;;;;;;;;;;;;;;21.74;23.00;100256.41;4419698;32;20009;-71
2022/03/08 13:02:20;;;;;;;;;;;;;;;22.52;22.05;100258.31;4416055;32;20005;-71
2022/03/08 13:04:45;;;;;;;;;;;;;;;;;;4404462;32;20422;-72